To NAV CANADA Home Page Login to a new session Search on AWWS site Feedback and Comments Disclaimer Vers la page française équivalente Tips FAQ What's new on the site To the Forecasts and Observations / NOTAM section To "File a Flight Plan" website Publications and other links Update of the User's profile FIC Telephone Numbers My Weather Data Folder Route Weather Data Regional Weather Data Local Weather Data To the Forecasts and Observations / NOTAM section
Request Generated 09/29/2016 at 23:45:36 UTC . Weather information available at that time is displayed.

METAR/TAF

REGINA/REGINA INTL/SK    

METAR CYQR 292300Z 15019G26KT 15SM FEW100 FEW280 25/04 A3008 RMK
AC1CI1 AC TR CI TR SLP193 DENSITY ALT 3200FT=
METAR CYQR 292200Z 15019KT 15SM FEW100 26/04 A3008 RMK AC1 SLP192
DENSITY ALT 3400FT=
METAR CYQR 292100Z 15018G28KT 15SM FEW100 26/05 A3009 RMK ACC2 SLP195
DENSITY ALT 3400FT=

TAF CYQR 292340Z 3000/3024 15018G28KT P6SM FEW100
BECMG 3006/3008 15015KT
FM301400 15015KT P6SM BKN100
RMK NXT FCST BY 300600Z=
Your time UTC time
Weather data provided by Environment Canada and NAV CANADA